Asian Captain — D7AQ — position and weather

sailwx.info

Track history (hours):
 
Tides and Currents Weather Stations Pressure Air Temp Water Temp Dewpoint Dewpoint Depression Visibility Wind Speed Wind Dir Waves Ship Positions

Asian Captain

Last reported at 2017-Sep-20 19:40 UTC. Time now 2017-Sep-21 16:15 UTC.
Position N 01°16' E 104°09'.

Length 229 m; draft 9.2 m.

Type: Cargo ship. MMSI: 440371000.

Date/timePositionNaut miles runAvg speedWind from/ knotsBaromVisibWave heightAir tempDewpointWater temp
2017-Sep-20 19:40N 01°16' E 104°09'1 5.6
2017-Sep-20 19:28N 01°16' E 104°07'2 5.3
2017-Sep-20 19:00N 01°15' E 104°05'3 5.9
2017-Sep-20 18:31N 01°15' E 104°02'3 6.2
2017-Sep-20 17:59N 01°15' E 103°59'4 0.5
2017-Sep-20 09:14N 01°15' E 104°03'417.4
2017-Sep-20 09:00N 01°15' E 103°59'917.7
2017-Sep-20 08:30N 01°11' E 103°51'817.0
2017-Sep-20 08:00N 01°06' E 103°45'815.5
2017-Sep-20 07:30N 01°04' E 103°37'917.3
2017-Sep-20 06:59N 01°08' E 103°29'917.1
2017-Sep-20 06:27N 01°13' E 103°22'  
Track history (hours):
 
Tides and Currents Weather Stations Pressure Air Temp Water Temp Dewpoint Dewpoint Depression Visibility Wind Speed Wind Dir Waves Ship Positions

Asian Captain

Last reported at 2017-Sep-20 19:40 UTC. Time now 2017-Sep-21 16:15 UTC.
Position N 01°16' E 104°09'.

Length 229 m; draft 9.2 m.

Type: Cargo ship. MMSI: 440371000.

Date/timePositionNaut miles runAvg speedWind from/ knotsBaromVisibWave heightAir tempDewpointWater temp
2017-Sep-20 19:40N 01°16' E 104°09'1 5.6
2017-Sep-20 19:28N 01°16' E 104°07'2 5.3
2017-Sep-20 19:00N 01°15' E 104°05'3 5.9
2017-Sep-20 18:31N 01°15' E 104°02'3 6.2
2017-Sep-20 17:59N 01°15' E 103°59'4 0.5
2017-Sep-20 09:14N 01°15' E 104°03'417.4
2017-Sep-20 09:00N 01°15' E 103°59'917.7
2017-Sep-20 08:30N 01°11' E 103°51'817.0
2017-Sep-20 08:00N 01°06' E 103°45'815.5
2017-Sep-20 07:30N 01°04' E 103°37'917.3
2017-Sep-20 06:59N 01°08' E 103°29'917.1
2017-Sep-20 06:27N 01°13' E 103°22'  

Dump ship's entire track history